Pittsburgh, PA (15211)

9:28 AM EDT on September 03, 2015 (GMT -0400)
Lower Gates Manor | | Change Station
CLOSE
Current Station
Personal Weather Station
Location: Munhall, PA
Elevation: 1050 ft
Nearby Weather Stations

Elev 1050 ft 40.39 °N, 79.92 °W | Updated 14 minutes ago

Clear
Clear
72.3 °F
Feels Like 71 °F
N
0.0
Wind Variable Wind from South

Today
High -- | Low -- °F
--% Chance of Precip.
Yesterday
High -- | Low -- °F
Precip. -- in
6:48 AM 7:48 PM
Waning Gibbous, 70% visible
Pressure 30.01 in
Visibility 6.0 miles
Clouds Few 2500 ft
Heat Index 71 °F
Dew Point 67 °F
Humidity 84%
Rainfall 0.00 in
Snow Depth Not available.
UV 2 out of 12
Pollen 10.10 out of 12
Air Quality Not available.
Flu Activity Not available.
METAR KAGC 031253Z 17005KT 6SM HZ FEW025 21/17 A3002 RMK AO2 SLP162 T02110172
Pressure 30.01 in
Visibility 6.0 miles
Clouds Few 2500 ft
Heat Index 71 °F
Dew Point 67 °F
Humidity 84%
Rainfall 0.00 in
Snow Depth Not available.
UV 2 out of 12
Pollen 10.10 out of 12
Air Quality Not available.
Flu Activity Not available.
METAR KAGC 031253Z 17005KT 6SM HZ FEW025 21/17 A3002 RMK AO2 SLP162 T02110172

10-Day Weather Forecast

×

Almanac

Astronomy

Sep. 03, 2015 Rise Set
Actual Time
Civil Twilight
Nautical Twilight
Astronomical Twilight
Moon
Length of Visible Light
Length of Day
Tomorrow will be .
, % of the Moon is Illuminated

Today's Extremes

State Highs State Lows

Community

WunderPhotos

Upload Photos

1,851,953 photos uploaded!

WunderBlogs® & News

Nearby

Air Quality

  Air Quality AQ Index Pollutant
Not available.

Snow Depth

Station Depth Elevation

Earthquake Activity

City Distance Mag. Time & Date
Minimum magnitude displayed is 2.5.

Coastal Water Temperatures

Place Temperature

Stations

Nearby Weather Stations

Station Location Temp. Windchill Dew Point Humidity Wind Precip. Elev Updated Type